sensor_id;sensor_type;location;lat;lon;timestamp;temperature;humidity
84330;SHT31;74510;42.676;23.432;2024-01-30T00:01:07;-1.77;73.01
84330;SHT31;74510;42.676;23.432;2024-01-30T00:03:33;-1.83;75.39
84330;SHT31;74510;42.676;23.432;2024-01-30T00:05:58;-1.87;75.07
84330;SHT31;74510;42.676;23.432;2024-01-30T00:08:23;-1.98;75.61
84330;SHT31;74510;42.676;23.432;2024-01-30T00:10:49;-2.00;75.82
84330;SHT31;74510;42.676;23.432;2024-01-30T00:13:14;-2.00;75.60
84330;SHT31;74510;42.676;23.432;2024-01-30T00:15:42;-1.86;74.31
84330;SHT31;74510;42.676;23.432;2024-01-30T00:18:08;-1.94;74.38
84330;SHT31;74510;42.676;23.432;2024-01-30T00:20:33;-2.01;74.89
84330;SHT31;74510;42.676;23.432;2024-01-30T00:22:58;-2.02;75.65
84330;SHT31;74510;42.676;23.432;2024-01-30T00:25:24;-2.01;76.15
84330;SHT31;74510;42.676;23.432;2024-01-30T00:27:49;-2.02;75.64
84330;SHT31;74510;42.676;23.432;2024-01-30T00:30:15;-2.09;75.72
84330;SHT31;74510;42.676;23.432;2024-01-30T00:32:40;-2.15;75.86
84330;SHT31;74510;42.676;23.432;2024-01-30T00:35:06;-2.18;76.50
84330;SHT31;74510;42.676;23.432;2024-01-30T00:37:31;-2.22;76.82
84330;SHT31;74510;42.676;23.432;2024-01-30T00:39:57;-2.17;75.93
84330;SHT31;74510;42.676;23.432;2024-01-30T00:42:22;-1.79;75.00
84330;SHT31;74510;42.676;23.432;2024-01-30T00:44:49;-1.95;75.54
84330;SHT31;74510;42.676;23.432;2024-01-30T00:47:14;-1.90;75.34
84330;SHT31;74510;42.676;23.432;2024-01-30T00:49:40;-2.18;76.76
84330;SHT31;74510;42.676;23.432;2024-01-30T00:52:05;-2.36;77.27
84330;SHT31;74510;42.676;23.432;2024-01-30T00:54:31;-2.36;77.67
84330;SHT31;74510;42.676;23.432;2024-01-30T00:56:56;-2.56;78.37
84330;SHT31;74510;42.676;23.432;2024-01-30T00:59:22;-2.63;78.89
84330;SHT31;74510;42.676;23.432;2024-01-30T01:01:47;-2.53;79.09
84330;SHT31;74510;42.676;23.432;2024-01-30T01:04:12;-2.55;77.70
84330;SHT31;74510;42.676;23.432;2024-01-30T01:06:38;-2.56;77.56
84330;SHT31;74510;42.676;23.432;2024-01-30T01:09:03;-2.56;78.73
84330;SHT31;74510;42.676;23.432;2024-01-30T01:11:29;-2.56;78.57
84330;SHT31;74510;42.676;23.432;2024-01-30T01:13:54;-2.60;77.74
84330;SHT31;74510;42.676;23.432;2024-01-30T01:16:20;-2.60;77.65
84330;SHT31;74510;42.676;23.432;2024-01-30T01:18:45;-2.55;78.00
84330;SHT31;74510;42.676;23.432;2024-01-30T01:21:11;-2.52;78.88
84330;SHT31;74510;42.676;23.432;2024-01-30T01:23:36;-2.45;77.35
84330;SHT31;74510;42.676;23.432;2024-01-30T01:26:01;-2.42;75.87
84330;SHT31;74510;42.676;23.432;2024-01-30T01:28:27;-2.42;75.92
84330;SHT31;74510;42.676;23.432;2024-01-30T01:30:52;-2.46;76.20
84330;SHT31;74510;42.676;23.432;2024-01-30T01:33:18;-2.48;75.81
84330;SHT31;74510;42.676;23.432;2024-01-30T01:35:43;-2.50;75.50
84330;SHT31;74510;42.676;23.432;2024-01-30T01:38:09;-2.57;75.54
84330;SHT31;74510;42.676;23.432;2024-01-30T01:40:34;-2.63;76.14
84330;SHT31;74510;42.676;23.432;2024-01-30T01:43:03;-2.60;76.05
84330;SHT31;74510;42.676;23.432;2024-01-30T01:45:29;-2.31;75.39
84330;SHT31;74510;42.676;23.432;2024-01-30T01:47:54;-2.31;75.97
84330;SHT31;74510;42.676;23.432;2024-01-30T01:50:21;-2.27;75.95
84330;SHT31;74510;42.676;23.432;2024-01-30T01:52:48;-2.39;76.73
84330;SHT31;74510;42.676;23.432;2024-01-30T01:55:15;-2.55;77.01
84330;SHT31;74510;42.676;23.432;2024-01-30T01:57:44;-2.79;77.46
84330;SHT31;74510;42.676;23.432;2024-01-30T02:00:10;-2.88;77.96
84330;SHT31;74510;42.676;23.432;2024-01-30T02:02:36;-3.00;79.71
84330;SHT31;74510;42.676;23.432;2024-01-30T02:05:02;-3.07;79.21
84330;SHT31;74510;42.676;23.432;2024-01-30T02:07:28;-3.07;79.25
84330;SHT31;74510;42.676;23.432;2024-01-30T02:09:54;-3.07;78.95
84330;SHT31;74510;42.676;23.432;2024-01-30T02:12:20;-3.05;79.41
84330;SHT31;74510;42.676;23.432;2024-01-30T02:14:46;-2.96;78.52
84330;SHT31;74510;42.676;23.432;2024-01-30T02:17:12;-2.98;78.07
84330;SHT31;74510;42.676;23.432;2024-01-30T02:19:38;-3.00;80.12
84330;SHT31;74510;42.676;23.432;2024-01-30T02:22:04;-3.07;79.79
84330;SHT31;74510;42.676;23.432;2024-01-30T02:24:29;-3.11;78.86
84330;SHT31;74510;42.676;23.432;2024-01-30T02:26:55;-3.03;79.02
84330;SHT31;74510;42.676;23.432;2024-01-30T02:29:20;-3.07;78.89
84330;SHT31;74510;42.676;23.432;2024-01-30T02:31:46;-3.04;79.17
84330;SHT31;74510;42.676;23.432;2024-01-30T02:34:12;-3.07;78.72
84330;SHT31;74510;42.676;23.432;2024-01-30T02:36:37;-3.03;79.20
84330;SHT31;74510;42.676;23.432;2024-01-30T02:39:03;-2.90;77.63
84330;SHT31;74510;42.676;23.432;2024-01-30T02:41:29;-2.94;77.98
84330;SHT31;74510;42.676;23.432;2024-01-30T02:43:54;-2.90;78.14
84330;SHT31;74510;42.676;23.432;2024-01-30T02:46:20;-2.97;77.78
84330;SHT31;74510;42.676;23.432;2024-01-30T02:48:45;-2.94;77.54
84330;SHT31;74510;42.676;23.432;2024-01-30T02:51:11;-2.97;78.31
84330;SHT31;74510;42.676;23.432;2024-01-30T02:53:36;-2.87;77.73
84330;SHT31;74510;42.676;23.432;2024-01-30T02:56:02;-2.88;78.01
84330;SHT31;74510;42.676;23.432;2024-01-30T02:58:28;-2.91;78.64
84330;SHT31;74510;42.676;23.432;2024-01-30T03:00:53;-2.88;78.26
84330;SHT31;74510;42.676;23.432;2024-01-30T03:03:19;-2.90;77.30
84330;SHT31;74510;42.676;23.432;2024-01-30T03:05:44;-2.96;77.34
84330;SHT31;74510;42.676;23.432;2024-01-30T03:08:10;-3.00;77.38
84330;SHT31;74510;42.676;23.432;2024-01-30T03:10:35;-2.93;77.06
84330;SHT31;74510;42.676;23.432;2024-01-30T03:13:00;-2.97;78.14
84330;SHT31;74510;42.676;23.432;2024-01-30T03:15:26;-3.00;75.47
84330;SHT31;74510;42.676;23.432;2024-01-30T03:17:53;-2.91;74.82
84330;SHT31;74510;42.676;23.432;2024-01-30T03:20:18;-2.77;73.04
84330;SHT31;74510;42.676;23.432;2024-01-30T03:22:44;-2.80;75.48
84330;SHT31;74510;42.676;23.432;2024-01-30T03:25:10;-2.69;74.11
84330;SHT31;74510;42.676;23.432;2024-01-30T03:27:35;-2.52;73.34
84330;SHT31;74510;42.676;23.432;2024-01-30T03:30:01;-2.52;73.00
84330;SHT31;74510;42.676;23.432;2024-01-30T03:32:27;-2.56;74.13
84330;SHT31;74510;42.676;23.432;2024-01-30T03:34:52;-2.72;74.74
84330;SHT31;74510;42.676;23.432;2024-01-30T03:37:18;-2.80;75.47
84330;SHT31;74510;42.676;23.432;2024-01-30T03:39:43;-2.81;75.27
84330;SHT31;74510;42.676;23.432;2024-01-30T03:42:08;-2.86;76.64
84330;SHT31;74510;42.676;23.432;2024-01-30T03:44:34;-2.72;76.00
84330;SHT31;74510;42.676;23.432;2024-01-30T03:46:59;-2.55;75.01
84330;SHT31;74510;42.676;23.432;2024-01-30T03:49:25;-2.69;75.34
84330;SHT31;74510;42.676;23.432;2024-01-30T03:51:50;-2.84;78.06
84330;SHT31;74510;42.676;23.432;2024-01-30T03:54:15;-2.86;76.66
84330;SHT31;74510;42.676;23.432;2024-01-30T03:56:41;-2.81;76.33
84330;SHT31;74510;42.676;23.432;2024-01-30T03:59:07;-2.96;76.79
84330;SHT31;74510;42.676;23.432;2024-01-30T04:01:32;-3.04;76.72
84330;SHT31;74510;42.676;23.432;2024-01-30T04:03:58;-3.00;77.02
84330;SHT31;74510;42.676;23.432;2024-01-30T04:06:24;-2.97;76.68
84330;SHT31;74510;42.676;23.432;2024-01-30T04:08:49;-3.01;77.13
84330;SHT31;74510;42.676;23.432;2024-01-30T04:11:14;-3.07;76.58
84330;SHT31;74510;42.676;23.432;2024-01-30T04:13:40;-2.94;77.02
84330;SHT31;74510;42.676;23.432;2024-01-30T04:16:07;-3.00;76.61
84330;SHT31;74510;42.676;23.432;2024-01-30T04:18:33;-3.08;77.96
84330;SHT31;74510;42.676;23.432;2024-01-30T04:20:59;-3.24;78.28
84330;SHT31;74510;42.676;23.432;2024-01-30T04:23:24;-3.21;78.29
84330;SHT31;74510;42.676;23.432;2024-01-30T04:25:50;-3.09;77.24
84330;SHT31;74510;42.676;23.432;2024-01-30T04:28:15;-3.22;76.71
84330;SHT31;74510;42.676;23.432;2024-01-30T04:30:41;-3.31;77.39
84330;SHT31;74510;42.676;23.432;2024-01-30T04:33:06;-3.15;76.61
84330;SHT31;74510;42.676;23.432;2024-01-30T04:35:31;-3.25;76.46
84330;SHT31;74510;42.676;23.432;2024-01-30T04:37:57;-3.27;76.13
84330;SHT31;74510;42.676;23.432;2024-01-30T04:40:22;-3.07;74.17
84330;SHT31;74510;42.676;23.432;2024-01-30T04:42:48;-3.07;74.35
84330;SHT31;74510;42.676;23.432;2024-01-30T04:45:13;-3.04;74.46
84330;SHT31;74510;42.676;23.432;2024-01-30T04:47:39;-2.98;75.87
84330;SHT31;74510;42.676;23.432;2024-01-30T04:50:06;-3.05;75.58
84330;SHT31;74510;42.676;23.432;2024-01-30T04:52:32;-3.12;75.23
84330;SHT31;74510;42.676;23.432;2024-01-30T04:54:57;-3.12;75.24
84330;SHT31;74510;42.676;23.432;2024-01-30T04:57:23;-3.14;76.01
84330;SHT31;74510;42.676;23.432;2024-01-30T04:59:48;-3.19;76.66
84330;SHT31;74510;42.676;23.432;2024-01-30T05:02:13;-3.27;77.82
84330;SHT31;74510;42.676;23.432;2024-01-30T05:04:40;-3.32;77.26
84330;SHT31;74510;42.676;23.432;2024-01-30T05:07:06;-3.32;77.05
84330;SHT31;74510;42.676;23.432;2024-01-30T05:09:31;-3.34;77.26
84330;SHT31;74510;42.676;23.432;2024-01-30T05:11:57;-3.18;76.24
84330;SHT31;74510;42.676;23.432;2024-01-30T05:14:23;-3.11;76.08
84330;SHT31;74510;42.676;23.432;2024-01-30T05:16:49;-3.30;76.80
84330;SHT31;74510;42.676;23.432;2024-01-30T05:19:14;-3.17;76.30
84330;SHT31;74510;42.676;23.432;2024-01-30T05:21:41;-3.27;76.24
84330;SHT31;74510;42.676;23.432;2024-01-30T05:24:07;-3.32;76.58
84330;SHT31;74510;42.676;23.432;2024-01-30T05:26:34;-3.34;76.77
84330;SHT31;74510;42.676;23.432;2024-01-30T05:29:00;-3.19;76.14
84330;SHT31;74510;42.676;23.432;2024-01-30T05:31:25;-3.25;75.51
84330;SHT31;74510;42.676;23.432;2024-01-30T05:33:52;-3.18;75.66
84330;SHT31;74510;42.676;23.432;2024-01-30T05:36:17;-3.24;75.83
84330;SHT31;74510;42.676;23.432;2024-01-30T05:38:43;-3.21;76.04
84330;SHT31;74510;42.676;23.432;2024-01-30T05:41:09;-3.28;76.45
84330;SHT31;74510;42.676;23.432;2024-01-30T05:43:34;-3.36;76.38
84330;SHT31;74510;42.676;23.432;2024-01-30T05:46:00;-3.35;75.69
84330;SHT31;74510;42.676;23.432;2024-01-30T05:48:26;-3.39;76.66
84330;SHT31;74510;42.676;23.432;2024-01-30T05:50:51;-3.31;75.96
84330;SHT31;74510;42.676;23.432;2024-01-30T05:53:16;-3.39;76.33
84330;SHT31;74510;42.676;23.432;2024-01-30T05:55:42;-3.25;75.63
84330;SHT31;74510;42.676;23.432;2024-01-30T05:58:07;-2.98;74.60
84330;SHT31;74510;42.676;23.432;2024-01-30T06:00:33;-2.86;73.94
84330;SHT31;74510;42.676;23.432;2024-01-30T06:02:58;-2.86;74.41
84330;SHT31;74510;42.676;23.432;2024-01-30T06:05:23;-2.93;74.89
84330;SHT31;74510;42.676;23.432;2024-01-30T06:07:49;-2.76;74.43
84330;SHT31;74510;42.676;23.432;2024-01-30T06:10:14;-2.75;75.06
84330;SHT31;74510;42.676;23.432;2024-01-30T06:12:40;-2.81;75.33
84330;SHT31;74510;42.676;23.432;2024-01-30T06:15:06;-2.72;75.47
84330;SHT31;74510;42.676;23.432;2024-01-30T06:17:32;-2.80;75.72
84330;SHT31;74510;42.676;23.432;2024-01-30T06:19:57;-2.86;75.92
84330;SHT31;74510;42.676;23.432;2024-01-30T06:22:23;-2.83;76.51
84330;SHT31;74510;42.676;23.432;2024-01-30T06:24:48;-2.83;76.32
84330;SHT31;74510;42.676;23.432;2024-01-30T06:27:14;-2.77;75.88
84330;SHT31;74510;42.676;23.432;2024-01-30T06:29:42;-2.67;74.63
84330;SHT31;74510;42.676;23.432;2024-01-30T06:32:08;-2.62;73.62
84330;SHT31;74510;42.676;23.432;2024-01-30T06:34:33;-2.56;74.69
84330;SHT31;74510;42.676;23.432;2024-01-30T06:36:58;-2.52;74.40
84330;SHT31;74510;42.676;23.432;2024-01-30T06:39:24;-2.44;74.71
84330;SHT31;74510;42.676;23.432;2024-01-30T06:41:50;-2.35;74.96
84330;SHT31;74510;42.676;23.432;2024-01-30T06:44:15;-2.29;74.06
84330;SHT31;74510;42.676;23.432;2024-01-30T06:46:41;-2.27;73.93
84330;SHT31;74510;42.676;23.432;2024-01-30T06:49:06;-2.24;72.62
84330;SHT31;74510;42.676;23.432;2024-01-30T06:51:31;-2.17;72.25
84330;SHT31;74510;42.676;23.432;2024-01-30T06:53:57;-2.02;71.76
84330;SHT31;74510;42.676;23.432;2024-01-30T06:56:22;-1.77;71.59
84330;SHT31;74510;42.676;23.432;2024-01-30T06:58:49;-1.55;71.02
84330;SHT31;74510;42.676;23.432;2024-01-30T07:01:15;-1.48;70.66
84330;SHT31;74510;42.676;23.432;2024-01-30T07:03:41;-1.42;69.04
84330;SHT31;74510;42.676;23.432;2024-01-30T07:06:06;-1.24;69.40
84330;SHT31;74510;42.676;23.432;2024-01-30T07:08:32;-0.91;66.25
84330;SHT31;74510;42.676;23.432;2024-01-30T07:10:57;-0.73;65.66
84330;SHT31;74510;42.676;23.432;2024-01-30T07:13:22;-0.73;66.14
84330;SHT31;74510;42.676;23.432;2024-01-30T07:15:48;-0.66;64.89
84330;SHT31;74510;42.676;23.432;2024-01-30T07:18:13;-0.48;64.62
84330;SHT31;74510;42.676;23.432;2024-01-30T07:20:39;-0.40;65.06
84330;SHT31;74510;42.676;23.432;2024-01-30T07:23:12;-0.37;63.92
84330;SHT31;74510;42.676;23.432;2024-01-30T07:25:40;-0.21;63.26
84330;SHT31;74510;42.676;23.432;2024-01-30T07:28:07;-0.02;63.51
84330;SHT31;74510;42.676;23.432;2024-01-30T07:30:34;0.13;61.00
84330;SHT31;74510;42.676;23.432;2024-01-30T07:32:59;0.26;61.76
84330;SHT31;74510;42.676;23.432;2024-01-30T07:35:25;0.32;61.87
84330;SHT31;74510;42.676;23.432;2024-01-30T07:37:50;0.50;59.16
84330;SHT31;74510;42.676;23.432;2024-01-30T07:40:17;0.26;58.36
84330;SHT31;74510;42.676;23.432;2024-01-30T07:42:42;0.20;58.55
84330;SHT31;74510;42.676;23.432;2024-01-30T07:45:08;0.33;59.66
84330;SHT31;74510;42.676;23.432;2024-01-30T07:47:33;0.44;57.46
84330;SHT31;74510;42.676;23.432;2024-01-30T07:49:59;0.56;59.13
84330;SHT31;74510;42.676;23.432;2024-01-30T07:52:24;0.73;59.04
84330;SHT31;74510;42.676;23.432;2024-01-30T07:54:50;0.85;57.30
84330;SHT31;74510;42.676;23.432;2024-01-30T07:57:16;0.89;57.61
84330;SHT31;74510;42.676;23.432;2024-01-30T07:59:45;0.98;57.49
84330;SHT31;74510;42.676;23.432;2024-01-30T08:02:12;0.89;53.10
84330;SHT31;74510;42.676;23.432;2024-01-30T08:04:38;0.70;54.57
84330;SHT31;74510;42.676;23.432;2024-01-30T08:07:03;0.68;55.17
84330;SHT31;74510;42.676;23.432;2024-01-30T08:09:29;0.65;57.36
84330;SHT31;74510;42.676;23.432;2024-01-30T08:11:54;0.85;54.30
84330;SHT31;74510;42.676;23.432;2024-01-30T08:14:19;0.96;54.10
84330;SHT31;74510;42.676;23.432;2024-01-30T08:16:45;1.06;54.57
84330;SHT31;74510;42.676;23.432;2024-01-30T08:19:11;1.18;55.69
84330;SHT31;74510;42.676;23.432;2024-01-30T08:21:36;1.06;55.67
84330;SHT31;74510;42.676;23.432;2024-01-30T08:24:03;0.91;53.03
84330;SHT31;74510;42.676;23.432;2024-01-30T08:26:30;0.63;53.92
84330;SHT31;74510;42.676;23.432;2024-01-30T08:28:55;0.52;53.41
84330;SHT31;74510;42.676;23.432;2024-01-30T08:31:21;0.64;55.11
84330;SHT31;74510;42.676;23.432;2024-01-30T08:33:46;0.73;55.36
84330;SHT31;74510;42.676;23.432;2024-01-30T08:36:11;0.73;56.15
84330;SHT31;74510;42.676;23.432;2024-01-30T08:38:37;0.74;55.60
84330;SHT31;74510;42.676;23.432;2024-01-30T08:41:02;0.81;54.63
84330;SHT31;74510;42.676;23.432;2024-01-30T08:43:28;0.64;54.10
84330;SHT31;74510;42.676;23.432;2024-01-30T08:45:54;0.61;55.23
84330;SHT31;74510;42.676;23.432;2024-01-30T08:48:20;0.63;54.01
84330;SHT31;74510;42.676;23.432;2024-01-30T08:50:48;0.64;54.42
84330;SHT31;74510;42.676;23.432;2024-01-30T08:53:14;0.52;54.62
84330;SHT31;74510;42.676;23.432;2024-01-30T08:55:40;0.52;55.23
84330;SHT31;74510;42.676;23.432;2024-01-30T08:58:06;0.47;55.94
84330;SHT31;74510;42.676;23.432;2024-01-30T09:00:32;0.60;56.06
84330;SHT31;74510;42.676;23.432;2024-01-30T09:02:58;0.64;54.85
84330;SHT31;74510;42.676;23.432;2024-01-30T09:05:23;0.67;55.02
84330;SHT31;74510;42.676;23.432;2024-01-30T09:07:49;0.65;54.14
84330;SHT31;74510;42.676;23.432;2024-01-30T09:10:16;0.65;55.10
84330;SHT31;74510;42.676;23.432;2024-01-30T09:12:45;0.78;54.43
84330;SHT31;74510;42.676;23.432;2024-01-30T09:15:10;0.70;54.97
84330;SHT31;74510;42.676;23.432;2024-01-30T09:17:36;0.73;55.33
84330;SHT31;74510;42.676;23.432;2024-01-30T09:20:01;0.80;54.29
84330;SHT31;74510;42.676;23.432;2024-01-30T09:22:27;0.84;53.04
84330;SHT31;74510;42.676;23.432;2024-01-30T09:24:52;0.85;54.80
84330;SHT31;74510;42.676;23.432;2024-01-30T09:27:18;0.89;53.73
84330;SHT31;74510;42.676;23.432;2024-01-30T09:29:43;1.16;53.44
84330;SHT31;74510;42.676;23.432;2024-01-30T09:32:09;1.16;54.67
84330;SHT31;74510;42.676;23.432;2024-01-30T09:34:34;1.28;53.74
84330;SHT31;74510;42.676;23.432;2024-01-30T09:37:00;1.22;54.96
84330;SHT31;74510;42.676;23.432;2024-01-30T09:39:26;1.05;55.53
84330;SHT31;74510;42.676;23.432;2024-01-30T09:42:03;0.91;54.06
84330;SHT31;74510;42.676;23.432;2024-01-30T09:44:30;0.89;55.90
84330;SHT31;74510;42.676;23.432;2024-01-30T09:46:56;0.94;55.44
84330;SHT31;74510;42.676;23.432;2024-01-30T09:49:24;1.06;57.08
84330;SHT31;74510;42.676;23.432;2024-01-30T09:51:50;1.16;55.41
84330;SHT31;74510;42.676;23.432;2024-01-30T09:54:16;1.04;55.23
84330;SHT31;74510;42.676;23.432;2024-01-30T09:56:42;1.09;55.40
84330;SHT31;74510;42.676;23.432;2024-01-30T09:59:07;1.12;55.98
84330;SHT31;74510;42.676;23.432;2024-01-30T10:01:34;1.18;54.53
84330;SHT31;74510;42.676;23.432;2024-01-30T10:04:00;1.13;54.62
84330;SHT31;74510;42.676;23.432;2024-01-30T10:06:26;1.22;54.59
84330;SHT31;74510;42.676;23.432;2024-01-30T10:08:52;1.35;54.86
84330;SHT31;74510;42.676;23.432;2024-01-30T10:11:18;1.26;55.24
84330;SHT31;74510;42.676;23.432;2024-01-30T10:13:43;1.21;55.57
84330;SHT31;74510;42.676;23.432;2024-01-30T10:16:09;1.23;55.29
84330;SHT31;74510;42.676;23.432;2024-01-30T10:18:34;1.33;55.99
84330;SHT31;74510;42.676;23.432;2024-01-30T10:21:00;1.29;56.12
84330;SHT31;74510;42.676;23.432;2024-01-30T10:23:25;1.39;55.42
84330;SHT31;74510;42.676;23.432;2024-01-30T10:25:51;1.49;55.06
84330;SHT31;74510;42.676;23.432;2024-01-30T10:28:17;1.64;55.44
84330;SHT31;74510;42.676;23.432;2024-01-30T10:30:43;1.88;55.37
84330;SHT31;74510;42.676;23.432;2024-01-30T10:33:08;1.67;54.81
84330;SHT31;74510;42.676;23.432;2024-01-30T10:35:34;1.53;55.16
84330;SHT31;74510;42.676;23.432;2024-01-30T10:38:00;1.46;54.99
84330;SHT31;74510;42.676;23.432;2024-01-30T10:40:28;1.46;56.10
84330;SHT31;74510;42.676;23.432;2024-01-30T10:42:55;1.46;56.05
84330;SHT31;74510;42.676;23.432;2024-01-30T10:45:22;1.43;55.78
84330;SHT31;74510;42.676;23.432;2024-01-30T10:47:53;1.40;56.58
84330;SHT31;74510;42.676;23.432;2024-01-30T10:50:19;1.44;56.21
84330;SHT31;74510;42.676;23.432;2024-01-30T10:52:46;1.38;55.85
84330;SHT31;74510;42.676;23.432;2024-01-30T10:55:13;1.46;56.61
84330;SHT31;74510;42.676;23.432;2024-01-30T10:57:40;1.52;57.09
84330;SHT31;74510;42.676;23.432;2024-01-30T11:00:11;1.54;56.95
84330;SHT31;74510;42.676;23.432;2024-01-30T11:02:43;1.53;56.92
84330;SHT31;74510;42.676;23.432;2024-01-30T11:05:09;1.68;56.28
84330;SHT31;74510;42.676;23.432;2024-01-30T11:07:35;1.63;56.03
84330;SHT31;74510;42.676;23.432;2024-01-30T11:10:03;1.61;55.46
84330;SHT31;74510;42.676;23.432;2024-01-30T11:12:33;1.56;56.12
84330;SHT31;74510;42.676;23.432;2024-01-30T11:15:07;1.50;56.09
84330;SHT31;74510;42.676;23.432;2024-01-30T11:18:00;1.50;56.44
84330;SHT31;74510;42.676;23.432;2024-01-30T11:20:27;1.47;55.14
84330;SHT31;74510;42.676;23.432;2024-01-30T11:22:57;1.54;55.93
84330;SHT31;74510;42.676;23.432;2024-01-30T11:25:23;1.47;55.15
84330;SHT31;74510;42.676;23.432;2024-01-30T11:27:50;1.50;55.82
84330;SHT31;74510;42.676;23.432;2024-01-30T11:30:27;1.61;55.51
84330;SHT31;74510;42.676;23.432;2024-01-30T11:33:10;1.70;54.13
84330;SHT31;74510;42.676;23.432;2024-01-30T11:35:40;1.77;54.84
84330;SHT31;74510;42.676;23.432;2024-01-30T11:38:06;1.87;54.78
84330;SHT31;74510;42.676;23.432;2024-01-30T11:40:33;1.95;54.58
84330;SHT31;74510;42.676;23.432;2024-01-30T11:43:00;1.71;54.73
84330;SHT31;74510;42.676;23.432;2024-01-30T11:45:27;1.71;55.13
84330;SHT31;74510;42.676;23.432;2024-01-30T11:47:53;1.82;53.86
84330;SHT31;74510;42.676;23.432;2024-01-30T11:50:18;1.75;54.00
84330;SHT31;74510;42.676;23.432;2024-01-30T11:52:44;1.73;54.10
84330;SHT31;74510;42.676;23.432;2024-01-30T11:55:10;1.87;53.91
84330;SHT31;74510;42.676;23.432;2024-01-30T11:57:36;1.98;52.72
84330;SHT31;74510;42.676;23.432;2024-01-30T12:00:05;2.04;53.41
84330;SHT31;74510;42.676;23.432;2024-01-30T12:02:36;2.24;53.79
84330;SHT31;74510;42.676;23.432;2024-01-30T12:05:05;2.29;52.29
84330;SHT31;74510;42.676;23.432;2024-01-30T12:07:31;2.33;52.57
84330;SHT31;74510;42.676;23.432;2024-01-30T12:09:57;2.38;51.89
84330;SHT31;74510;42.676;23.432;2024-01-30T12:12:24;2.36;51.67
84330;SHT31;74510;42.676;23.432;2024-01-30T12:14:50;2.33;51.19
84330;SHT31;74510;42.676;23.432;2024-01-30T12:17:28;2.29;50.99
84330;SHT31;74510;42.676;23.432;2024-01-30T12:20:10;2.30;51.89
84330;SHT31;74510;42.676;23.432;2024-01-30T12:22:41;2.61;51.78
84330;SHT31;74510;42.676;23.432;2024-01-30T12:27:39;2.97;52.11
84330;SHT31;74510;42.676;23.432;2024-01-30T12:30:14;3.03;50.76
84330;SHT31;74510;42.676;23.432;2024-01-30T12:32:43;3.04;50.61
84330;SHT31;74510;42.676;23.432;2024-01-30T12:35:13;3.55;50.63
84330;SHT31;74510;42.676;23.432;2024-01-30T12:37:40;3.67;48.22
84330;SHT31;74510;42.676;23.432;2024-01-30T12:40:07;3.45;48.36
84330;SHT31;74510;42.676;23.432;2024-01-30T12:42:33;3.08;49.05
84330;SHT31;74510;42.676;23.432;2024-01-30T12:44:58;3.09;49.62
84330;SHT31;74510;42.676;23.432;2024-01-30T12:47:24;2.88;49.30
84330;SHT31;74510;42.676;23.432;2024-01-30T12:49:50;2.96;49.56
84330;SHT31;74510;42.676;23.432;2024-01-30T12:52:19;3.17;48.69
84330;SHT31;74510;42.676;23.432;2024-01-30T12:54:44;3.21;48.32
84330;SHT31;74510;42.676;23.432;2024-01-30T12:57:10;3.48;49.50
84330;SHT31;74510;42.676;23.432;2024-01-30T12:59:35;4.04;47.41
84330;SHT31;74510;42.676;23.432;2024-01-30T13:02:01;4.37;46.17
84330;SHT31;74510;42.676;23.432;2024-01-30T13:04:28;4.24;46.86
84330;SHT31;74510;42.676;23.432;2024-01-30T13:06:54;3.63;48.83
84330;SHT31;74510;42.676;23.432;2024-01-30T13:09:19;3.18;49.64
84330;SHT31;74510;42.676;23.432;2024-01-30T13:11:45;3.03;50.48
84330;SHT31;74510;42.676;23.432;2024-01-30T13:14:10;2.91;52.08
84330;SHT31;74510;42.676;23.432;2024-01-30T13:16:36;2.63;52.90
84330;SHT31;74510;42.676;23.432;2024-01-30T13:19:02;2.57;53.76
84330;SHT31;74510;42.676;23.432;2024-01-30T13:21:28;2.43;54.61
84330;SHT31;74510;42.676;23.432;2024-01-30T13:23:53;2.43;55.23
84330;SHT31;74510;42.676;23.432;2024-01-30T13:26:20;2.42;54.83
84330;SHT31;74510;42.676;23.432;2024-01-30T13:28:46;2.33;55.93
84330;SHT31;74510;42.676;23.432;2024-01-30T13:31:12;2.30;54.57
84330;SHT31;74510;42.676;23.432;2024-01-30T13:33:38;2.17;55.49
84330;SHT31;74510;42.676;23.432;2024-01-30T13:36:03;2.25;55.81
84330;SHT31;74510;42.676;23.432;2024-01-30T13:38:29;2.22;56.58
84330;SHT31;74510;42.676;23.432;2024-01-30T13:40:54;2.33;56.84
84330;SHT31;74510;42.676;23.432;2024-01-30T13:43:20;2.19;55.67
84330;SHT31;74510;42.676;23.432;2024-01-30T13:45:46;2.24;56.57
84330;SHT31;74510;42.676;23.432;2024-01-30T13:48:11;2.19;56.80
84330;SHT31;74510;42.676;23.432;2024-01-30T13:50:37;2.01;57.26
84330;SHT31;74510;42.676;23.432;2024-01-30T13:53:03;2.01;57.75
84330;SHT31;74510;42.676;23.432;2024-01-30T13:55:29;1.85;58.11
84330;SHT31;74510;42.676;23.432;2024-01-30T13:57:54;1.78;58.69
84330;SHT31;74510;42.676;23.432;2024-01-30T14:00:21;1.85;59.20
84330;SHT31;74510;42.676;23.432;2024-01-30T14:02:47;1.73;58.72
84330;SHT31;74510;42.676;23.432;2024-01-30T14:05:13;1.68;58.01
84330;SHT31;74510;42.676;23.432;2024-01-30T14:07:39;1.57;58.38
84330;SHT31;74510;42.676;23.432;2024-01-30T14:10:05;1.70;59.14
84330;SHT31;74510;42.676;23.432;2024-01-30T14:12:31;1.67;58.89
84330;SHT31;74510;42.676;23.432;2024-01-30T14:14:56;1.64;57.90
84330;SHT31;74510;42.676;23.432;2024-01-30T14:17:22;1.59;58.27
84330;SHT31;74510;42.676;23.432;2024-01-30T14:19:47;1.57;58.55
84330;SHT31;74510;42.676;23.432;2024-01-30T14:22:12;1.50;58.22
84330;SHT31;74510;42.676;23.432;2024-01-30T14:24:38;1.47;59.09
84330;SHT31;74510;42.676;23.432;2024-01-30T14:27:04;1.46;59.22
84330;SHT31;74510;42.676;23.432;2024-01-30T14:29:29;1.35;58.92
84330;SHT31;74510;42.676;23.432;2024-01-30T14:31:55;1.40;59.14
84330;SHT31;74510;42.676;23.432;2024-01-30T14:34:21;1.33;59.82
84330;SHT31;74510;42.676;23.432;2024-01-30T14:36:46;1.29;59.85
84330;SHT31;74510;42.676;23.432;2024-01-30T14:39:12;1.35;59.82
84330;SHT31;74510;42.676;23.432;2024-01-30T14:41:37;1.23;59.57
84330;SHT31;74510;42.676;23.432;2024-01-30T14:44:03;1.23;60.20
84330;SHT31;74510;42.676;23.432;2024-01-30T14:46:29;1.19;59.85
84330;SHT31;74510;42.676;23.432;2024-01-30T14:48:55;1.19;59.96
84330;SHT31;74510;42.676;23.432;2024-01-30T14:51:22;1.12;60.53
84330;SHT31;74510;42.676;23.432;2024-01-30T14:53:48;1.06;60.50
84330;SHT31;74510;42.676;23.432;2024-01-30T14:56:13;1.02;60.23
84330;SHT31;74510;42.676;23.432;2024-01-30T14:58:39;0.92;61.27
84330;SHT31;74510;42.676;23.432;2024-01-30T15:01:04;0.87;61.07
84330;SHT31;74510;42.676;23.432;2024-01-30T15:03:30;0.84;62.07
84330;SHT31;74510;42.676;23.432;2024-01-30T15:05:56;0.77;61.45
84330;SHT31;74510;42.676;23.432;2024-01-30T15:08:21;0.74;61.75
84330;SHT31;74510;42.676;23.432;2024-01-30T15:10:47;0.71;62.55
84330;SHT31;74510;42.676;23.432;2024-01-30T15:13:12;0.63;62.02
84330;SHT31;74510;42.676;23.432;2024-01-30T15:15:38;0.56;62.30
84330;SHT31;74510;42.676;23.432;2024-01-30T15:18:03;0.47;62.95